»·PEaware :: SWA1034 KLAS-KLAX

SWA1034 :: KLAS-KLAX

FLIGHT INFORMATION

Flight Status: Arrived
Operator:
Southwest Airlines
More flights by this operator :: More flights under this callsign
Pilot: Patrick W. (20081)
Aircraft: BOEING 737-300
(B733)
More flights by this aircraft type
Origin: KLAS McCarran Intl
United States
Destination: KLAX Los Angeles Intl
United States
More flights between these airports :: More routes between these airports
Route: +BOACH8 RIKII SHTNR ANJLL4
File this flight plan on PilotEdge
Remarks:
Altitude:
(Current/Filed)
26,000ft
Speed:
(Current/Filed)
440kts
Departed: 03-Oct-18 06:07 PM
Arrived: 03-Oct-18 07:02 PM
Distance/Time
Traveled:
205nm/0:55
Distance/Time
To Go:
Arrived

Flight Plot

Page will automatically refresh every two minutes.

Flight plan parsing failed; only flown route is shown


Map Options




Map Legend


Flown Route
Filed Route
Departure Airport
Arrival Airport
Navaid (VOR, NDB)
Fix

Horizontal Profiles

Position Reports

Time Latitude Longitude Heading Altitude Ground
Speed
03-Oct-18 17:32 36.079680 -115.146199 335 2093ft 0kts
03-Oct-18 17:33 36.079680 -115.146199 335 2093ft 0kts
03-Oct-18 17:34 36.079680 -115.146199 335 2093ft 0kts
03-Oct-18 17:35 36.079680 -115.146199 335 2093ft 0kts
03-Oct-18 17:36 36.079680 -115.146199 335 2093ft 0kts
03-Oct-18 17:37 36.079680 -115.146199 335 2093ft 0kts
03-Oct-18 17:38 36.079680 -115.146199 335 2093ft 0kts
03-Oct-18 17:39 36.079680 -115.146199 335 2093ft 0kts
03-Oct-18 17:40 36.079680 -115.146199 335 2093ft 0kts
03-Oct-18 17:41 36.079680 -115.146199 335 2093ft 0kts
03-Oct-18 17:42 36.079680 -115.146199 335 2093ft 0kts
03-Oct-18 17:43 36.079680 -115.146199 335 2093ft 0kts
03-Oct-18 17:44 36.079680 -115.146199 335 2093ft 0kts
03-Oct-18 17:45 36.079680 -115.146199 335 2093ft 0kts
03-Oct-18 17:46 36.079680 -115.146199 335 2093ft 0kts
03-Oct-18 17:47 36.079680 -115.146199 335 2093ft 0kts
03-Oct-18 17:48 36.079680 -115.146199 335 2093ft 0kts
03-Oct-18 17:49 36.079680 -115.146199 335 2093ft 0kts
03-Oct-18 17:50 36.079680 -115.146199 335 2093ft 0kts
03-Oct-18 17:51 36.079680 -115.146199 335 2093ft 0kts
03-Oct-18 17:52 36.079680 -115.146199 335 2093ft 0kts
03-Oct-18 17:53 36.079680 -115.146199 335 2093ft 0kts
03-Oct-18 17:54 36.079680 -115.146199 335 2093ft 0kts
03-Oct-18 17:55 36.079680 -115.146199 335 2093ft 0kts
03-Oct-18 17:56 36.079680 -115.146199 335 2093ft 0kts
03-Oct-18 17:57 36.079680 -115.146199 335 2093ft 0kts
03-Oct-18 17:58 36.079483 -115.146086 335 2094ft 0kts
03-Oct-18 17:59 36.079028 -115.145835 337 2094ft 0kts
03-Oct-18 18:00 36.079049 -115.146047 220 2094ft 0kts
03-Oct-18 18:01 36.079049 -115.146047 220 2094ft 0kts
03-Oct-18 18:02 36.078665 -115.146502 224 2096ft 6kts
03-Oct-18 18:03 36.077886 -115.148863 273 2107ft 12kts
03-Oct-18 18:04 36.078067 -115.152513 289 2121ft 9kts
03-Oct-18 18:05 36.081013 -115.154631 334 2121ft 17kts
03-Oct-18 18:06 36.086243 -115.157660 334 2119ft 16kts
03-Oct-18 18:07 36.092577 -115.154789 23 2095ft 34kts
03-Oct-18 18:08 36.098254 -115.153244 293 2080ft 11kts
03-Oct-18 18:09 36.081664 -115.163268 204 2423ft 172kts
03-Oct-18 18:10 36.031852 -115.190042 200 3661ft 209kts
03-Oct-18 18:11 35.984720 -115.229466 258 4875ft 244kts
03-Oct-18 18:12 35.969876 -115.290457 226 5019ft 227kts
03-Oct-18 18:13 35.918483 -115.307101 187 5919ft 228kts
03-Oct-18 18:14 35.864706 -115.314066 186 8090ft 264kts
03-Oct-18 18:15 35.806523 -115.309352 176 10276ft 275kts
03-Oct-18 18:16 35.740170 -115.301656 177 14782ft 237kts
03-Oct-18 18:17 35.678715 -115.294725 181 17675ft 241kts
03-Oct-18 18:18 35.604683 -115.297463 184 19184ft 299kts
03-Oct-18 18:19 35.522665 -115.300745 186 22274ft 298kts
03-Oct-18 18:20 35.449019 -115.342633 209 24808ft 299kts
03-Oct-18 18:21 35.376823 -115.395250 208 26058ft 321kts
03-Oct-18 18:22 35.300372 -115.450786 208 25975ft 336kts
03-Oct-18 18:23 35.222874 -115.506936 209 26033ft 333kts
03-Oct-18 18:24 35.144137 -115.563842 209 25984ft 332kts
03-Oct-18 18:25 35.084217 -115.629395 222 25842ft 337kts
03-Oct-18 18:26 35.030460 -115.698308 221 25963ft 336kts
03-Oct-18 18:27 34.968266 -115.777817 221 25961ft 337kts
03-Oct-18 18:28 34.904406 -115.859210 221 25981ft 337kts
03-Oct-18 18:29 34.854681 -115.922214 221 25984ft 337kts
03-Oct-18 18:30 34.800645 -115.990532 221 25982ft 336kts
03-Oct-18 18:31 34.736948 -116.071438 222 25995ft 334kts
03-Oct-18 18:32 34.674270 -116.151266 221 25980ft 331kts
03-Oct-18 18:33 34.611255 -116.231360 221 25984ft 331kts
03-Oct-18 18:34 34.547171 -116.312613 222 25991ft 340kts
03-Oct-18 18:35 34.482859 -116.393991 222 25980ft 338kts
03-Oct-18 18:36 34.421607 -116.471737 226 24230ft 332kts
03-Oct-18 18:37 34.378902 -116.569012 237 23976ft 331kts
03-Oct-18 18:38 34.340421 -116.662612 237 24132ft 333kts
03-Oct-18 18:39 34.301981 -116.758070 238 22979ft 331kts
03-Oct-18 18:40 34.269222 -116.839503 239 21378ft 338kts
03-Oct-18 18:41 34.223333 -116.953334 240 19274ft 320kts
03-Oct-18 18:42 34.196380 -117.037606 247 19160ft 328kts
03-Oct-18 18:43 34.171821 -117.128728 247 18091ft 326kts
03-Oct-18 18:44 34.145837 -117.223656 247 16176ft 301kts
03-Oct-18 18:45 34.125964 -117.295942 247 14911ft 281kts
03-Oct-18 18:46 34.101967 -117.384163 249 13282ft 271kts
03-Oct-18 18:47 34.087787 -117.440712 249 12229ft 264kts
03-Oct-18 18:48 34.070133 -117.515404 252 11958ft 230kts
03-Oct-18 18:49 34.055732 -117.589612 252 10602ft 227kts
03-Oct-18 18:50 34.045501 -117.661050 261 9966ft 223kts
03-Oct-18 18:51 34.042082 -117.734909 254 10019ft 222kts
03-Oct-18 18:52 34.027533 -117.808048 252 8824ft 225kts
03-Oct-18 18:53 34.012635 -117.879121 252 7629ft 216kts
03-Oct-18 18:54 33.999232 -117.946398 254 6412ft 191kts
03-Oct-18 18:55 33.991930 -118.004071 259 6004ft 172kts
03-Oct-18 18:56 33.986940 -118.058085 260 5982ft 167kts
03-Oct-18 18:57 33.982381 -118.104224 261 5141ft 166kts
03-Oct-18 18:58 33.976840 -118.157697 263 4206ft 157kts
03-Oct-18 18:59 33.972574 -118.203207 262 3442ft 137kts
03-Oct-18 19:00 33.967787 -118.247803 264 2680ft 139kts
03-Oct-18 19:01 33.963208 -118.294312 264 1913ft 143kts
03-Oct-18 19:02 33.958353 -118.341322 262 1139ft 143kts
03-Oct-18 19:03 33.953615 -118.387380 265 378ft 139kts
03-Oct-18 19:04 33.949634 -118.418792 232 119ft 0kts
03-Oct-18 19:05 33.949393 -118.419186 235 119ft 5kts
03-Oct-18 19:06 33.947180 -118.422352 178 115ft 2kts
03-Oct-18 19:07 33.947220 -118.418673 83 119ft 18kts
03-Oct-18 19:08 33.948172 -118.410765 82 122ft 28kts
03-Oct-18 19:09 33.949028 -118.402494 83 115ft 9kts
03-Oct-18 19:10 33.947765 -118.400076 183 113ft 13kts
03-Oct-18 19:11 33.947197 -118.400709 266 115ft 0kts
03-Oct-18 19:12 33.947197 -118.400708 266 115ft 0kts
03-Oct-18 19:13 33.947197 -118.400708 266 115ft 0kts
03-Oct-18 19:14 33.947197 -118.400708 266 115ft 0kts
03-Oct-18 19:15 33.947197 -118.400708 266 115ft 0kts
03-Oct-18 19:16 33.947197 -118.400708 266 115ft 0kts
03-Oct-18 19:17 33.947197 -118.400708 266 115ft 0kts
03-Oct-18 19:18 33.947197 -118.400708 266 115ft 0kts

Navigation Log

Ident Type
Flight plan parsing failed, navigation log unavailable